Miami, Florida
Traffic Map
Current Weather Conditions
Miami, Florida
Broken Clouds
Broken Clouds
87°
Feels Like: 97°
Wind Chill: 87° Ceiling: 8000
Heat Index: 97° Visibility: 10mi
Dew Point: 76° Wind: 12mph
Humidity: 69% Direction: 40° (NE)
Pressure: 29.92in Gusts: 0mph
Raw Report DataKMIA 252253Z 04010KT 10SM SCT027CB SCT040 BKN080 BKN230 31/24 A2992 RMK AO2 SLP133 CB SW-W MOV W TCU DSNT N T03060244
Traffic Incident Summary
Active as of:
Severity:
Category:
InformationThere was an issue retrieving the traffic information for this location. Please try a different location or try again shortly.
Advertisements
Track Severe Weather on mobile